sensor_id;sensor_type;location;lat;lon;timestamp;P1;durP1;ratioP1;P2;durP2;ratioP2
62844;SDS011;48929;47.910;20.390;2023-02-15T00:01:48;23.38;;;8.57;;
62844;SDS011;48929;47.910;20.390;2023-02-15T00:04:18;20.60;;;9.13;;
62844;SDS011;48929;47.910;20.390;2023-02-15T00:06:47;18.92;;;9.38;;
62844;SDS011;48929;47.910;20.390;2023-02-15T00:09:16;18.15;;;8.95;;
62844;SDS011;48929;47.910;20.390;2023-02-15T00:11:45;20.25;;;9.32;;
62844;SDS011;48929;47.910;20.390;2023-02-15T00:14:19;17.10;;;8.35;;
62844;SDS011;48929;47.910;20.390;2023-02-15T00:16:50;23.92;;;10.85;;
62844;SDS011;48929;47.910;20.390;2023-02-15T00:19:20;21.15;;;9.25;;
62844;SDS011;48929;47.910;20.390;2023-02-15T00:21:49;16.13;;;9.20;;
62844;SDS011;48929;47.910;20.390;2023-02-15T00:24:18;16.60;;;8.20;;
62844;SDS011;48929;47.910;20.390;2023-02-15T00:26:47;16.70;;;8.07;;
62844;SDS011;48929;47.910;20.390;2023-02-15T00:29:17;19.80;;;8.57;;
62844;SDS011;48929;47.910;20.390;2023-02-15T00:31:48;19.88;;;8.73;;
62844;SDS011;48929;47.910;20.390;2023-02-15T00:34:17;24.00;;;9.48;;
62844;SDS011;48929;47.910;20.390;2023-02-15T00:36:47;20.55;;;9.43;;
62844;SDS011;48929;47.910;20.390;2023-02-15T00:39:19;23.13;;;10.38;;
62844;SDS011;48929;47.910;20.390;2023-02-15T00:41:50;22.67;;;8.68;;
62844;SDS011;48929;47.910;20.390;2023-02-15T00:44:21;18.23;;;8.35;;
62844;SDS011;48929;47.910;20.390;2023-02-15T00:46:49;14.82;;;8.77;;
62844;SDS011;48929;47.910;20.390;2023-02-15T00:49:18;19.88;;;8.52;;
62844;SDS011;48929;47.910;20.390;2023-02-15T00:51:47;22.58;;;9.90;;
62844;SDS011;48929;47.910;20.390;2023-02-15T00:54:16;19.15;;;8.55;;
62844;SDS011;48929;47.910;20.390;2023-02-15T00:56:45;19.00;;;8.23;;
62844;SDS011;48929;47.910;20.390;2023-02-15T00:59:14;19.67;;;8.85;;
62844;SDS011;48929;47.910;20.390;2023-02-15T01:01:44;18.15;;;9.18;;
62844;SDS011;48929;47.910;20.390;2023-02-15T01:04:12;16.08;;;8.32;;
62844;SDS011;48929;47.910;20.390;2023-02-15T01:06:41;14.85;;;8.25;;
62844;SDS011;48929;47.910;20.390;2023-02-15T01:09:10;18.40;;;8.32;;
62844;SDS011;48929;47.910;20.390;2023-02-15T01:11:40;18.58;;;8.52;;
62844;SDS011;48929;47.910;20.390;2023-02-15T01:14:09;19.55;;;8.15;;
62844;SDS011;48929;47.910;20.390;2023-02-15T01:16:38;17.52;;;8.20;;
62844;SDS011;48929;47.910;20.390;2023-02-15T01:19:09;16.90;;;8.73;;
62844;SDS011;48929;47.910;20.390;2023-02-15T01:21:38;19.88;;;8.75;;
62844;SDS011;48929;47.910;20.390;2023-02-15T01:24:10;21.98;;;9.73;;
62844;SDS011;48929;47.910;20.390;2023-02-15T01:26:40;17.90;;;8.73;;
62844;SDS011;48929;47.910;20.390;2023-02-15T01:29:09;20.10;;;8.35;;
62844;SDS011;48929;47.910;20.390;2023-02-15T01:31:37;20.35;;;9.13;;
62844;SDS011;48929;47.910;20.390;2023-02-15T01:34:06;16.92;;;8.30;;
62844;SDS011;48929;47.910;20.390;2023-02-15T01:36:36;20.40;;;8.88;;
62844;SDS011;48929;47.910;20.390;2023-02-15T01:39:05;16.52;;;8.30;;
62844;SDS011;48929;47.910;20.390;2023-02-15T01:41:36;16.00;;;7.93;;
62844;SDS011;48929;47.910;20.390;2023-02-15T01:47:03;20.63;;;7.88;;
62844;SDS011;48929;47.910;20.390;2023-02-15T01:49:31;19.08;;;8.15;;
62844;SDS011;48929;47.910;20.390;2023-02-15T01:52:02;18.35;;;8.07;;
62844;SDS011;48929;47.910;20.390;2023-02-15T01:54:32;21.35;;;8.68;;
62844;SDS011;48929;47.910;20.390;2023-02-15T01:57:03;16.35;;;7.97;;
62844;SDS011;48929;47.910;20.390;2023-02-15T01:59:33;17.52;;;8.13;;
62844;SDS011;48929;47.910;20.390;2023-02-15T02:02:03;17.08;;;8.43;;
62844;SDS011;48929;47.910;20.390;2023-02-15T02:04:38;14.52;;;7.57;;
62844;SDS011;48929;47.910;20.390;2023-02-15T02:07:11;18.70;;;8.02;;
62844;SDS011;48929;47.910;20.390;2023-02-15T02:09:41;18.55;;;7.95;;
62844;SDS011;48929;47.910;20.390;2023-02-15T02:12:14;20.08;;;8.68;;
62844;SDS011;48929;47.910;20.390;2023-02-15T02:14:44;16.38;;;7.78;;
62844;SDS011;48929;47.910;20.390;2023-02-15T02:17:15;17.13;;;8.20;;
62844;SDS011;48929;47.910;20.390;2023-02-15T02:19:55;15.63;;;8.02;;
62844;SDS011;48929;47.910;20.390;2023-02-15T02:28:54;16.00;;;7.88;;
62844;SDS011;48929;47.910;20.390;2023-02-15T02:31:53;21.25;;;9.07;;
62844;SDS011;48929;47.910;20.390;2023-02-15T02:34:42;20.10;;;7.88;;
62844;SDS011;48929;47.910;20.390;2023-02-15T02:37:19;18.50;;;8.25;;
62844;SDS011;48929;47.910;20.390;2023-02-15T02:39:57;17.52;;;8.32;;
62844;SDS011;48929;47.910;20.390;2023-02-15T02:42:34;20.67;;;9.27;;
62844;SDS011;48929;47.910;20.390;2023-02-15T02:45:08;22.35;;;9.30;;
62844;SDS011;48929;47.910;20.390;2023-02-15T02:47:38;17.60;;;9.38;;
62844;SDS011;48929;47.910;20.390;2023-02-15T02:50:12;21.48;;;8.93;;
62844;SDS011;48929;47.910;20.390;2023-02-15T02:52:44;21.60;;;9.07;;
62844;SDS011;48929;47.910;20.390;2023-02-15T02:55:15;19.25;;;9.40;;
62844;SDS011;48929;47.910;20.390;2023-02-15T02:57:51;19.00;;;9.23;;
62844;SDS011;48929;47.910;20.390;2023-02-15T03:00:23;20.02;;;9.18;;
62844;SDS011;48929;47.910;20.390;2023-02-15T03:02:58;21.75;;;10.05;;
62844;SDS011;48929;47.910;20.390;2023-02-15T03:05:33;17.50;;;8.80;;
62844;SDS011;48929;47.910;20.390;2023-02-15T03:08:06;16.77;;;8.60;;
62844;SDS011;48929;47.910;20.390;2023-02-15T03:10:36;19.77;;;9.35;;
62844;SDS011;48929;47.910;20.390;2023-02-15T03:13:07;17.98;;;7.93;;
62844;SDS011;48929;47.910;20.390;2023-02-15T03:15:36;18.20;;;9.30;;
62844;SDS011;48929;47.910;20.390;2023-02-15T03:18:25;21.00;;;9.10;;
62844;SDS011;48929;47.910;20.390;2023-02-15T03:21:00;19.73;;;8.40;;
62844;SDS011;48929;47.910;20.390;2023-02-15T03:23:31;21.42;;;9.20;;
62844;SDS011;48929;47.910;20.390;2023-02-15T03:26:03;18.90;;;9.63;;
62844;SDS011;48929;47.910;20.390;2023-02-15T03:28:35;23.58;;;9.77;;
62844;SDS011;48929;47.910;20.390;2023-02-15T03:31:06;24.05;;;9.73;;
62844;SDS011;48929;47.910;20.390;2023-02-15T03:33:39;24.33;;;9.25;;
62844;SDS011;48929;47.910;20.390;2023-02-15T03:36:14;20.73;;;9.25;;
62844;SDS011;48929;47.910;20.390;2023-02-15T03:38:49;21.75;;;9.13;;
62844;SDS011;48929;47.910;20.390;2023-02-15T03:41:26;20.58;;;10.10;;
62844;SDS011;48929;47.910;20.390;2023-02-15T03:43:58;20.58;;;7.93;;
62844;SDS011;48929;47.910;20.390;2023-02-15T03:46:31;17.98;;;8.45;;
62844;SDS011;48929;47.910;20.390;2023-02-15T03:49:04;20.83;;;8.65;;
62844;SDS011;48929;47.910;20.390;2023-02-15T03:51:39;16.02;;;7.95;;
62844;SDS011;48929;47.910;20.390;2023-02-15T03:54:14;18.08;;;8.45;;
62844;SDS011;48929;47.910;20.390;2023-02-15T03:57:06;21.92;;;8.30;;
62844;SDS011;48929;47.910;20.390;2023-02-15T03:59:55;16.05;;;7.25;;
62844;SDS011;48929;47.910;20.390;2023-02-15T04:02:44;16.75;;;9.20;;
62844;SDS011;48929;47.910;20.390;2023-02-15T04:05:21;18.55;;;8.30;;
62844;SDS011;48929;47.910;20.390;2023-02-15T04:07:51;15.65;;;8.35;;
62844;SDS011;48929;47.910;20.390;2023-02-15T04:10:20;23.33;;;8.65;;
62844;SDS011;48929;47.910;20.390;2023-02-15T04:13:06;24.13;;;9.35;;
62844;SDS011;48929;47.910;20.390;2023-02-15T04:15:35;19.65;;;8.00;;
62844;SDS011;48929;47.910;20.390;2023-02-15T04:18:21;19.37;;;8.23;;
62844;SDS011;48929;47.910;20.390;2023-02-15T04:21:03;15.73;;;7.93;;
62844;SDS011;48929;47.910;20.390;2023-02-15T04:23:51;22.77;;;7.30;;
62844;SDS011;48929;47.910;20.390;2023-02-15T04:26:37;16.75;;;7.50;;
62844;SDS011;48929;47.910;20.390;2023-02-15T04:29:05;18.35;;;8.18;;
62844;SDS011;48929;47.910;20.390;2023-02-15T04:31:34;19.77;;;8.50;;
62844;SDS011;48929;47.910;20.390;2023-02-15T04:34:03;17.20;;;7.85;;
62844;SDS011;48929;47.910;20.390;2023-02-15T04:36:31;17.83;;;7.80;;
62844;SDS011;48929;47.910;20.390;2023-02-15T04:39:01;20.52;;;8.77;;
62844;SDS011;48929;47.910;20.390;2023-02-15T04:41:30;16.30;;;8.40;;
62844;SDS011;48929;47.910;20.390;2023-02-15T04:43:59;20.70;;;9.20;;
62844;SDS011;48929;47.910;20.390;2023-02-15T04:46:29;19.75;;;7.70;;
62844;SDS011;48929;47.910;20.390;2023-02-15T04:48:58;18.35;;;9.35;;
62844;SDS011;48929;47.910;20.390;2023-02-15T04:51:26;17.65;;;7.75;;
62844;SDS011;48929;47.910;20.390;2023-02-15T04:53:55;16.92;;;8.95;;
62844;SDS011;48929;47.910;20.390;2023-02-15T04:56:25;19.17;;;8.57;;
62844;SDS011;48929;47.910;20.390;2023-02-15T04:58:56;17.85;;;7.65;;
62844;SDS011;48929;47.910;20.390;2023-02-15T05:01:25;19.73;;;8.20;;
62844;SDS011;48929;47.910;20.390;2023-02-15T05:03:54;16.42;;;8.55;;
62844;SDS011;48929;47.910;20.390;2023-02-15T05:06:23;18.52;;;8.38;;
62844;SDS011;48929;47.910;20.390;2023-02-15T05:08:53;20.88;;;9.07;;
62844;SDS011;48929;47.910;20.390;2023-02-15T05:11:22;20.50;;;9.85;;
62844;SDS011;48929;47.910;20.390;2023-02-15T05:13:53;21.83;;;8.95;;
62844;SDS011;48929;47.910;20.390;2023-02-15T05:16:22;19.95;;;8.65;;
62844;SDS011;48929;47.910;20.390;2023-02-15T05:18:52;19.52;;;7.22;;
62844;SDS011;48929;47.910;20.390;2023-02-15T05:21:21;19.27;;;8.15;;
62844;SDS011;48929;47.910;20.390;2023-02-15T05:23:50;25.48;;;8.80;;
62844;SDS011;48929;47.910;20.390;2023-02-15T05:26:20;20.77;;;10.10;;
62844;SDS011;48929;47.910;20.390;2023-02-15T05:29:23;23.02;;;10.75;;
62844;SDS011;48929;47.910;20.390;2023-02-15T05:31:52;21.83;;;9.52;;
62844;SDS011;48929;47.910;20.390;2023-02-15T05:34:32;25.58;;;10.27;;
62844;SDS011;48929;47.910;20.390;2023-02-15T05:37:00;21.58;;;10.05;;
62844;SDS011;48929;47.910;20.390;2023-02-15T05:39:29;22.48;;;11.70;;
62844;SDS011;48929;47.910;20.390;2023-02-15T05:41:58;23.25;;;10.00;;
62844;SDS011;48929;47.910;20.390;2023-02-15T05:44:28;21.58;;;10.23;;
62844;SDS011;48929;47.910;20.390;2023-02-15T05:46:58;24.33;;;10.18;;
62844;SDS011;48929;47.910;20.390;2023-02-15T05:49:27;20.70;;;10.27;;
62844;SDS011;48929;47.910;20.390;2023-02-15T05:51:56;25.88;;;10.88;;
62844;SDS011;48929;47.910;20.390;2023-02-15T05:54:25;23.70;;;10.73;;
62844;SDS011;48929;47.910;20.390;2023-02-15T05:56:53;19.98;;;11.35;;
62844;SDS011;48929;47.910;20.390;2023-02-15T05:59:22;25.95;;;12.75;;
62844;SDS011;48929;47.910;20.390;2023-02-15T06:01:53;28.85;;;12.95;;
62844;SDS011;48929;47.910;20.390;2023-02-15T06:04:22;20.92;;;10.65;;
62844;SDS011;48929;47.910;20.390;2023-02-15T06:06:50;23.25;;;11.80;;
62844;SDS011;48929;47.910;20.390;2023-02-15T06:09:19;24.75;;;11.85;;
62844;SDS011;48929;47.910;20.390;2023-02-15T06:11:48;26.88;;;12.32;;
62844;SDS011;48929;47.910;20.390;2023-02-15T06:14:17;27.95;;;12.38;;
62844;SDS011;48929;47.910;20.390;2023-02-15T06:16:46;33.13;;;14.02;;
62844;SDS011;48929;47.910;20.390;2023-02-15T06:19:16;33.13;;;14.50;;
62844;SDS011;48929;47.910;20.390;2023-02-15T06:21:45;27.70;;;14.63;;
62844;SDS011;48929;47.910;20.390;2023-02-15T06:24:14;28.25;;;13.63;;
62844;SDS011;48929;47.910;20.390;2023-02-15T06:26:43;33.55;;;13.90;;
62844;SDS011;48929;47.910;20.390;2023-02-15T06:29:13;30.80;;;14.13;;
62844;SDS011;48929;47.910;20.390;2023-02-15T06:31:42;30.23;;;13.90;;
62844;SDS011;48929;47.910;20.390;2023-02-15T06:34:11;28.25;;;13.98;;
62844;SDS011;48929;47.910;20.390;2023-02-15T06:36:42;36.00;;;15.75;;
62844;SDS011;48929;47.910;20.390;2023-02-15T06:39:11;34.25;;;15.85;;
62844;SDS011;48929;47.910;20.390;2023-02-15T06:41:41;29.23;;;14.15;;
62844;SDS011;48929;47.910;20.390;2023-02-15T06:44:10;38.33;;;17.13;;
62844;SDS011;48929;47.910;20.390;2023-02-15T06:46:38;58.65;;;28.88;;
62844;SDS011;48929;47.910;20.390;2023-02-15T06:49:08;50.55;;;22.02;;
62844;SDS011;48929;47.910;20.390;2023-02-15T06:51:38;49.50;;;23.27;;
62844;SDS011;48929;47.910;20.390;2023-02-15T06:54:09;45.10;;;22.27;;
62844;SDS011;48929;47.910;20.390;2023-02-15T06:56:37;49.92;;;19.77;;
62844;SDS011;48929;47.910;20.390;2023-02-15T06:59:06;39.00;;;16.95;;
62844;SDS011;48929;47.910;20.390;2023-02-15T07:01:35;44.22;;;18.17;;
62844;SDS011;48929;47.910;20.390;2023-02-15T07:04:04;32.13;;;16.65;;
62844;SDS011;48929;47.910;20.390;2023-02-15T07:06:33;31.55;;;16.77;;
62844;SDS011;48929;47.910;20.390;2023-02-15T07:09:03;36.47;;;17.17;;
62844;SDS011;48929;47.910;20.390;2023-02-15T07:11:33;51.22;;;27.10;;
62844;SDS011;48929;47.910;20.390;2023-02-15T07:14:20;46.85;;;22.33;;
62844;SDS011;48929;47.910;20.390;2023-02-15T07:16:48;50.90;;;22.25;;
62844;SDS011;48929;47.910;20.390;2023-02-15T07:19:17;46.67;;;21.27;;
62844;SDS011;48929;47.910;20.390;2023-02-15T07:21:46;47.75;;;21.60;;
62844;SDS011;48929;47.910;20.390;2023-02-15T07:24:15;46.00;;;20.27;;
62844;SDS011;48929;47.910;20.390;2023-02-15T07:26:46;42.53;;;20.02;;
62844;SDS011;48929;47.910;20.390;2023-02-15T07:29:14;39.95;;;17.65;;
62844;SDS011;48929;47.910;20.390;2023-02-15T07:31:43;40.47;;;17.73;;
62844;SDS011;48929;47.910;20.390;2023-02-15T07:34:13;34.58;;;16.98;;
62844;SDS011;48929;47.910;20.390;2023-02-15T07:36:42;33.50;;;16.10;;
62844;SDS011;48929;47.910;20.390;2023-02-15T07:39:12;39.65;;;16.52;;
62844;SDS011;48929;47.910;20.390;2023-02-15T07:41:41;36.85;;;16.10;;
62844;SDS011;48929;47.910;20.390;2023-02-15T07:44:12;42.20;;;17.58;;
62844;SDS011;48929;47.910;20.390;2023-02-15T07:46:41;35.55;;;16.85;;
62844;SDS011;48929;47.910;20.390;2023-02-15T07:49:10;31.25;;;16.52;;
62844;SDS011;48929;47.910;20.390;2023-02-15T07:51:39;40.00;;;19.33;;
62844;SDS011;48929;47.910;20.390;2023-02-15T07:54:08;39.10;;;18.08;;
62844;SDS011;48929;47.910;20.390;2023-02-15T07:56:37;43.38;;;18.48;;
62844;SDS011;48929;47.910;20.390;2023-02-15T07:59:05;45.88;;;19.02;;
62844;SDS011;48929;47.910;20.390;2023-02-15T08:01:37;44.90;;;20.27;;
62844;SDS011;48929;47.910;20.390;2023-02-15T08:04:07;40.65;;;19.98;;
62844;SDS011;48929;47.910;20.390;2023-02-15T08:06:36;43.22;;;19.60;;
62844;SDS011;48929;47.910;20.390;2023-02-15T08:09:06;42.15;;;18.17;;
62844;SDS011;48929;47.910;20.390;2023-02-15T08:11:37;41.95;;;16.80;;
62844;SDS011;48929;47.910;20.390;2023-02-15T08:14:08;33.83;;;13.25;;
62844;SDS011;48929;47.910;20.390;2023-02-15T08:16:46;32.75;;;14.05;;
62844;SDS011;48929;47.910;20.390;2023-02-15T08:19:18;33.13;;;15.63;;
62844;SDS011;48929;47.910;20.390;2023-02-15T08:21:50;34.03;;;15.18;;
62844;SDS011;48929;47.910;20.390;2023-02-15T08:24:22;33.83;;;14.57;;
62844;SDS011;48929;47.910;20.390;2023-02-15T08:26:52;31.38;;;13.23;;
62844;SDS011;48929;47.910;20.390;2023-02-15T08:29:22;28.50;;;13.57;;
62844;SDS011;48929;47.910;20.390;2023-02-15T08:31:57;25.05;;;11.85;;
62844;SDS011;48929;47.910;20.390;2023-02-15T08:34:30;30.05;;;11.68;;
62844;SDS011;48929;47.910;20.390;2023-02-15T08:37:01;30.20;;;12.95;;
62844;SDS011;48929;47.910;20.390;2023-02-15T08:39:33;37.60;;;15.80;;
62844;SDS011;48929;47.910;20.390;2023-02-15T08:42:02;29.65;;;14.52;;
62844;SDS011;48929;47.910;20.390;2023-02-15T08:44:32;26.48;;;12.27;;
62844;SDS011;48929;47.910;20.390;2023-02-15T08:47:02;32.72;;;14.02;;
62844;SDS011;48929;47.910;20.390;2023-02-15T08:49:30;32.92;;;14.55;;
62844;SDS011;48929;47.910;20.390;2023-02-15T08:52:01;24.63;;;11.77;;
62844;SDS011;48929;47.910;20.390;2023-02-15T08:54:29;32.33;;;12.73;;
62844;SDS011;48929;47.910;20.390;2023-02-15T08:56:58;32.65;;;13.55;;
62844;SDS011;48929;47.910;20.390;2023-02-15T08:59:28;33.40;;;14.98;;
62844;SDS011;48929;47.910;20.390;2023-02-15T09:01:58;33.13;;;14.70;;
62844;SDS011;48929;47.910;20.390;2023-02-15T09:04:28;32.22;;;14.45;;
62844;SDS011;48929;47.910;20.390;2023-02-15T09:07:00;32.42;;;15.07;;
62844;SDS011;48929;47.910;20.390;2023-02-15T09:09:31;32.67;;;15.02;;
62844;SDS011;48929;47.910;20.390;2023-02-15T09:12:04;30.90;;;15.35;;
62844;SDS011;48929;47.910;20.390;2023-02-15T09:14:33;31.30;;;13.90;;
62844;SDS011;48929;47.910;20.390;2023-02-15T09:17:01;34.10;;;15.15;;
62844;SDS011;48929;47.910;20.390;2023-02-15T09:19:32;32.15;;;14.77;;
62844;SDS011;48929;47.910;20.390;2023-02-15T09:22:01;29.45;;;13.02;;
62844;SDS011;48929;47.910;20.390;2023-02-15T09:24:31;26.40;;;11.65;;
62844;SDS011;48929;47.910;20.390;2023-02-15T09:27:06;25.88;;;11.02;;
62844;SDS011;48929;47.910;20.390;2023-02-15T09:29:38;24.65;;;11.75;;
62844;SDS011;48929;47.910;20.390;2023-02-15T09:32:13;24.20;;;10.85;;
62844;SDS011;48929;47.910;20.390;2023-02-15T09:34:43;23.38;;;10.65;;
62844;SDS011;48929;47.910;20.390;2023-02-15T09:37:12;26.95;;;11.32;;
62844;SDS011;48929;47.910;20.390;2023-02-15T09:39:52;25.33;;;12.13;;
62844;SDS011;48929;47.910;20.390;2023-02-15T09:42:28;23.15;;;10.65;;
62844;SDS011;48929;47.910;20.390;2023-02-15T09:45:26;24.92;;;10.75;;
62844;SDS011;48929;47.910;20.390;2023-02-15T09:48:34;25.05;;;11.02;;
62844;SDS011;48929;47.910;20.390;2023-02-15T09:54:04;21.52;;;10.07;;
62844;SDS011;48929;47.910;20.390;2023-02-15T09:56:42;20.98;;;10.45;;
62844;SDS011;48929;47.910;20.390;2023-02-15T09:59:21;22.92;;;10.50;;
62844;SDS011;48929;47.910;20.390;2023-02-15T10:02:00;25.45;;;11.20;;
62844;SDS011;48929;47.910;20.390;2023-02-15T10:04:44;24.80;;;10.57;;
62844;SDS011;48929;47.910;20.390;2023-02-15T10:07:29;23.95;;;10.98;;
62844;SDS011;48929;47.910;20.390;2023-02-15T10:10:21;24.08;;;10.55;;
62844;SDS011;48929;47.910;20.390;2023-02-15T10:13:00;23.30;;;10.93;;
62844;SDS011;48929;47.910;20.390;2023-02-15T10:15:48;24.45;;;11.38;;
62844;SDS011;48929;47.910;20.390;2023-02-15T10:18:33;25.30;;;11.35;;
62844;SDS011;48929;47.910;20.390;2023-02-15T10:21:10;24.05;;;10.85;;
62844;SDS011;48929;47.910;20.390;2023-02-15T10:23:52;24.92;;;11.45;;
62844;SDS011;48929;47.910;20.390;2023-02-15T10:26:36;24.23;;;10.68;;
62844;SDS011;48929;47.910;20.390;2023-02-15T10:29:14;23.10;;;10.93;;
62844;SDS011;48929;47.910;20.390;2023-02-15T10:31:57;20.45;;;10.13;;
62844;SDS011;48929;47.910;20.390;2023-02-15T10:34:34;22.35;;;10.00;;
62844;SDS011;48929;47.910;20.390;2023-02-15T10:37:11;23.33;;;10.38;;
62844;SDS011;48929;47.910;20.390;2023-02-15T10:39:59;21.23;;;10.35;;
62844;SDS011;48929;47.910;20.390;2023-02-15T10:42:35;20.95;;;10.70;;
62844;SDS011;48929;47.910;20.390;2023-02-15T10:45:16;26.85;;;12.05;;
62844;SDS011;48929;47.910;20.390;2023-02-15T10:48:01;22.75;;;10.43;;
62844;SDS011;48929;47.910;20.390;2023-02-15T10:50:46;23.30;;;11.00;;
62844;SDS011;48929;47.910;20.390;2023-02-15T10:53:24;20.25;;;9.55;;
62844;SDS011;48929;47.910;20.390;2023-02-15T10:56:05;24.33;;;10.27;;
62844;SDS011;48929;47.910;20.390;2023-02-15T10:58:55;20.98;;;10.23;;
62844;SDS011;48929;47.910;20.390;2023-02-15T11:01:37;21.73;;;9.63;;
62844;SDS011;48929;47.910;20.390;2023-02-15T11:07:20;24.20;;;10.80;;
62844;SDS011;48929;47.910;20.390;2023-02-15T11:09:53;27.40;;;11.82;;
62844;SDS011;48929;47.910;20.390;2023-02-15T11:12:31;22.98;;;10.60;;
62844;SDS011;48929;47.910;20.390;2023-02-15T11:15:09;27.50;;;12.20;;
62844;SDS011;48929;47.910;20.390;2023-02-15T11:17:45;27.40;;;12.65;;
62844;SDS011;48929;47.910;20.390;2023-02-15T11:20:19;25.33;;;12.05;;
62844;SDS011;48929;47.910;20.390;2023-02-15T11:22:54;24.70;;;11.77;;
62844;SDS011;48929;47.910;20.390;2023-02-15T11:25:25;22.98;;;10.73;;
62844;SDS011;48929;47.910;20.390;2023-02-15T11:27:58;25.15;;;11.90;;
62844;SDS011;48929;47.910;20.390;2023-02-15T11:30:35;25.30;;;11.85;;
62844;SDS011;48929;47.910;20.390;2023-02-15T11:33:22;23.88;;;12.15;;
62844;SDS011;48929;47.910;20.390;2023-02-15T11:35:58;24.55;;;12.32;;
62844;SDS011;48929;47.910;20.390;2023-02-15T11:38:31;22.98;;;11.88;;
62844;SDS011;48929;47.910;20.390;2023-02-15T11:41:09;20.20;;;10.00;;
62844;SDS011;48929;47.910;20.390;2023-02-15T11:43:42;24.95;;;11.35;;
62844;SDS011;48929;47.910;20.390;2023-02-15T11:46:18;26.35;;;11.25;;
62844;SDS011;48929;47.910;20.390;2023-02-15T11:48:49;24.38;;;12.23;;
62844;SDS011;48929;47.910;20.390;2023-02-15T11:51:18;23.40;;;11.15;;
62844;SDS011;48929;47.910;20.390;2023-02-15T11:53:50;20.40;;;10.35;;
62844;SDS011;48929;47.910;20.390;2023-02-15T11:56:21;23.17;;;11.85;;
62844;SDS011;48929;47.910;20.390;2023-02-15T11:58:53;25.90;;;11.30;;
62844;SDS011;48929;47.910;20.390;2023-02-15T12:01:28;25.10;;;12.32;;
62844;SDS011;48929;47.910;20.390;2023-02-15T12:04:06;26.52;;;12.75;;
62844;SDS011;48929;47.910;20.390;2023-02-15T12:06:42;25.83;;;12.52;;
62844;SDS011;48929;47.910;20.390;2023-02-15T12:09:17;28.25;;;13.40;;
62844;SDS011;48929;47.910;20.390;2023-02-15T12:11:52;24.65;;;11.82;;
62844;SDS011;48929;47.910;20.390;2023-02-15T12:14:29;24.13;;;11.57;;
62844;SDS011;48929;47.910;20.390;2023-02-15T12:17:15;25.98;;;12.35;;
62844;SDS011;48929;47.910;20.390;2023-02-15T12:19:49;23.30;;;12.35;;
62844;SDS011;48929;47.910;20.390;2023-02-15T12:22:23;23.77;;;11.75;;
62844;SDS011;48929;47.910;20.390;2023-02-15T12:24:56;23.67;;;12.43;;
62844;SDS011;48929;47.910;20.390;2023-02-15T12:27:28;23.25;;;12.40;;
62844;SDS011;48929;47.910;20.390;2023-02-15T12:30:00;25.60;;;12.38;;
62844;SDS011;48929;47.910;20.390;2023-02-15T12:32:35;23.63;;;11.70;;
62844;SDS011;48929;47.910;20.390;2023-02-15T12:35:21;24.20;;;11.50;;
62844;SDS011;48929;47.910;20.390;2023-02-15T12:37:56;26.88;;;12.80;;
62844;SDS011;48929;47.910;20.390;2023-02-15T12:40:28;22.95;;;11.75;;
62844;SDS011;48929;47.910;20.390;2023-02-15T12:42:59;25.23;;;12.13;;
62844;SDS011;48929;47.910;20.390;2023-02-15T12:45:36;25.07;;;13.57;;
62844;SDS011;48929;47.910;20.390;2023-02-15T12:48:12;28.13;;;12.13;;
62844;SDS011;48929;47.910;20.390;2023-02-15T12:50:47;26.88;;;12.60;;
62844;SDS011;48929;47.910;20.390;2023-02-15T12:53:22;26.50;;;13.98;;
62844;SDS011;48929;47.910;20.390;2023-02-15T12:56:01;28.30;;;13.80;;
62844;SDS011;48929;47.910;20.390;2023-02-15T12:58:32;27.05;;;12.27;;
62844;SDS011;48929;47.910;20.390;2023-02-15T13:01:11;23.77;;;12.27;;
62844;SDS011;48929;47.910;20.390;2023-02-15T13:06:46;27.35;;;13.73;;
62844;SDS011;48929;47.910;20.390;2023-02-15T13:09:19;45.97;;;20.17;;
62844;SDS011;48929;47.910;20.390;2023-02-15T13:11:50;28.70;;;13.55;;
62844;SDS011;48929;47.910;20.390;2023-02-15T13:14:20;29.20;;;14.10;;
62844;SDS011;48929;47.910;20.390;2023-02-15T13:16:53;30.20;;;15.32;;
62844;SDS011;48929;47.910;20.390;2023-02-15T13:19:27;29.23;;;14.65;;
62844;SDS011;48929;47.910;20.390;2023-02-15T13:22:02;27.93;;;14.07;;
62844;SDS011;48929;47.910;20.390;2023-02-15T13:24:37;30.20;;;15.57;;
62844;SDS011;48929;47.910;20.390;2023-02-15T13:27:10;28.90;;;13.63;;
62844;SDS011;48929;47.910;20.390;2023-02-15T13:29:45;26.85;;;12.80;;
62844;SDS011;48929;47.910;20.390;2023-02-15T13:32:24;28.48;;;14.60;;
62844;SDS011;48929;47.910;20.390;2023-02-15T13:34:57;31.85;;;13.82;;
62844;SDS011;48929;47.910;20.390;2023-02-15T13:37:42;29.85;;;14.40;;
62844;SDS011;48929;47.910;20.390;2023-02-15T13:40:22;29.02;;;14.18;;
62844;SDS011;48929;47.910;20.390;2023-02-15T13:43:02;29.48;;;14.05;;
62844;SDS011;48929;47.910;20.390;2023-02-15T13:45:42;30.90;;;13.93;;
62844;SDS011;48929;47.910;20.390;2023-02-15T13:48:28;29.35;;;14.98;;
62844;SDS011;48929;47.910;20.390;2023-02-15T13:51:19;33.47;;;15.07;;
62844;SDS011;48929;47.910;20.390;2023-02-15T13:53:58;32.88;;;14.38;;
62844;SDS011;48929;47.910;20.390;2023-02-15T13:56:40;30.83;;;13.80;;
62844;SDS011;48929;47.910;20.390;2023-02-15T13:59:28;29.20;;;15.10;;
62844;SDS011;48929;47.910;20.390;2023-02-15T14:02:18;31.98;;;14.93;;
62844;SDS011;48929;47.910;20.390;2023-02-15T14:05:05;30.38;;;14.52;;
62844;SDS011;48929;47.910;20.390;2023-02-15T14:07:47;30.67;;;14.07;;
62844;SDS011;48929;47.910;20.390;2023-02-15T14:10:32;32.38;;;14.93;;
62844;SDS011;48929;47.910;20.390;2023-02-15T14:13:29;30.70;;;15.57;;
62844;SDS011;48929;47.910;20.390;2023-02-15T14:16:13;32.55;;;15.40;;
62844;SDS011;48929;47.910;20.390;2023-02-15T14:18:49;33.63;;;14.50;;
62844;SDS011;48929;47.910;20.390;2023-02-15T14:21:32;30.63;;;14.43;;
62844;SDS011;48929;47.910;20.390;2023-02-15T14:24:14;30.83;;;14.48;;
62844;SDS011;48929;47.910;20.390;2023-02-15T14:26:51;29.60;;;14.80;;
62844;SDS011;48929;47.910;20.390;2023-02-15T14:29:27;31.58;;;14.95;;
62844;SDS011;48929;47.910;20.390;2023-02-15T14:32:09;33.25;;;16.27;;
62844;SDS011;48929;47.910;20.390;2023-02-15T14:34:42;33.05;;;16.33;;
62844;SDS011;48929;47.910;20.390;2023-02-15T14:37:18;36.78;;;17.40;;
62844;SDS011;48929;47.910;20.390;2023-02-15T14:39:52;33.75;;;16.45;;
62844;SDS011;48929;47.910;20.390;2023-02-15T14:42:48;30.98;;;15.10;;
62844;SDS011;48929;47.910;20.390;2023-02-15T14:45:26;32.95;;;15.40;;
62844;SDS011;48929;47.910;20.390;2023-02-15T14:48:03;34.28;;;16.77;;
62844;SDS011;48929;47.910;20.390;2023-02-15T14:53:52;34.70;;;15.63;;
62844;SDS011;48929;47.910;20.390;2023-02-15T14:57:40;34.63;;;16.52;;
62844;SDS011;48929;47.910;20.390;2023-02-15T15:00:33;30.27;;;14.27;;
62844;SDS011;48929;47.910;20.390;2023-02-15T15:03:19;37.17;;;16.75;;
62844;SDS011;48929;47.910;20.390;2023-02-15T15:05:52;36.27;;;16.00;;
62844;SDS011;48929;47.910;20.390;2023-02-15T15:08:29;34.33;;;15.82;;
62844;SDS011;48929;47.910;20.390;2023-02-15T15:17:12;33.33;;;14.65;;
62844;SDS011;48929;47.910;20.390;2023-02-15T15:20:09;33.38;;;15.10;;
62844;SDS011;48929;47.910;20.390;2023-02-15T15:22:42;30.42;;;14.73;;